Time;durP1;ratioP1;P1;durP2;ratioP2;P2;SDS_P1;SDS_P2;PMS_P1;PMS_P2;Temp;Humidity;BMP_temperature;BMP_pressure;BME280_temperature;BME280_humidity;BME280_pressure;Samples;Min_cycle;Max_cycle;Signal;HPM_P1;HPM_P2
2022/09/18 00:01:25;;;;;;;3.67;1.00;;;11.80;99.90;;;;;;5017895;28;20021;-65
2022/09/18 00:03:54;;;;;;;6.30;1.20;;;11.80;99.90;;;;;;5016726;28;20434;-64
2022/09/18 00:06:22;;;;;;;7.15;1.08;;;11.80;99.90;;;;;;5058254;23;20071;-69
2022/09/18 00:08:56;;;;;;;3.40;0.88;;;11.70;99.90;;;;;;5056281;28;20028;-68
2022/09/18 00:11:24;;;;;;;3.33;1.13;;;11.70;99.90;;;;;;5055852;28;20111;-69
2022/09/18 00:13:50;;;;;;;3.85;1.25;;;11.80;99.90;;;;;;5037827;28;20040;-68
2022/09/18 00:16:18;;;;;;;6.90;1.75;;;11.70;99.90;;;;;;5038120;28;20025;-69
2022/09/18 00:18:44;;;;;;;5.05;1.00;;;11.60;99.90;;;;;;5056467;28;20076;-70
2022/09/18 00:21:12;;;;;;;5.03;0.80;;;11.60;99.90;;;;;;5055876;28;20565;-69
2022/09/18 00:23:38;;;;;;;6.25;1.00;;;11.50;99.90;;;;;;5055576;28;20496;-69
2022/09/18 00:26:05;;;;;;;4.63;0.85;;;11.40;99.90;;;;;;5055635;28;20028;-69
2022/09/18 00:28:31;;;;;;;;;;;11.60;99.90;;;;;;5055762;28;20133;-69
2022/09/18 00:31:08;;;;;;;4.43;1.00;;;11.60;99.90;;;;;;5056117;28;19908;-69
2022/09/18 00:33:34;;;;;;;5.95;1.10;;;11.60;99.90;;;;;;5055229;28;20104;-68
2022/09/18 00:36:05;;;;;;;8.02;1.00;;;11.60;99.90;;;;;;5037359;28;20549;-69
2022/09/18 00:38:31;;;;;;;5.80;1.10;;;11.50;99.90;;;;;;5055149;28;20363;-68
2022/09/18 00:41:01;;;;;;;5.95;0.80;;;11.50;99.90;;;;;;5055472;28;20036;-69
2022/09/18 00:43:32;;;;;;;4.82;1.13;;;11.60;99.90;;;;;;5055023;28;20036;-68
2022/09/18 00:46:25;;;;;;;5.88;1.30;;;11.70;99.90;;;;;;5037046;28;20389;-68
2022/09/18 00:49:15;;;;;;;4.93;0.80;;;11.70;99.90;;;;;;5054841;28;20096;-68
2022/09/18 00:51:43;;;;;;;3.65;1.23;;;11.70;99.90;;;;;;5055057;28;20481;-68
2022/09/18 00:54:21;;;;;;;2.45;1.23;;;11.70;99.90;;;;;;5054765;28;20433;-68
2022/09/18 00:56:51;;;;;;;3.72;0.90;;;11.70;99.90;;;;;;5054879;28;20416;-68
2022/09/18 00:59:27;;;;;;;5.32;1.00;;;11.80;99.90;;;;;;5055015;28;20412;-68
2022/09/18 01:01:54;;;;;;;7.47;0.88;;;11.70;99.90;;;;;;5055067;28;20083;-69
2022/09/18 01:04:21;;;;;;;4.22;0.80;;;11.60;99.90;;;;;;5054895;28;20025;-68
2022/09/18 01:07:00;;;;;;;5.57;1.00;;;11.70;99.90;;;;;;5054723;28;20385;-68
2022/09/18 01:09:53;;;;;;;3.05;1.20;;;11.60;99.90;;;;;;5054864;28;20025;-68
2022/09/18 01:12:24;;;;;;;2.15;1.00;;;11.70;99.90;;;;;;5054760;28;20029;-69
2022/09/18 01:15:20;;;;;;;4.25;1.20;;;11.70;99.90;;;;;;5055164;28;20560;-68
2022/09/18 01:18:04;;;;;;;4.50;0.98;;;11.80;99.90;;;;;;5037643;28;20032;-69
2022/09/18 01:20:51;;;;;;;3.85;0.88;;;11.80;99.90;;;;;;5036577;28;20021;-68
2022/09/18 01:23:44;;;;;;;5.35;0.77;;;11.80;99.90;;;;;;5054384;28;20396;-68
2022/09/18 01:26:53;;;;;;;2.65;1.05;;;11.90;99.90;;;;;;5054399;28;20029;-68
2022/09/18 01:29:22;;;;;;;4.45;1.00;;;11.80;99.90;;;;;;4976683;28;20042;-69
2022/09/18 01:32:04;;;;;;;5.93;0.90;;;11.80;99.90;;;;;;4992843;28;20038;-68
2022/09/18 01:34:40;;;;;;;4.97;1.27;;;11.80;99.90;;;;;;4992625;28;20025;-68
2022/09/18 01:37:16;;;;;;;5.00;1.00;;;11.80;99.90;;;;;;4992808;28;20050;-69
2022/09/18 01:40:12;;;;;;;6.78;1.25;;;11.80;99.90;;;;;;4976908;28;20097;-68
2022/09/18 01:42:40;;;;;;;7.30;1.20;;;11.90;99.90;;;;;;4993041;28;20022;-68
2022/09/18 01:45:10;;;;;;;4.82;1.00;;;11.90;99.90;;;;;;4992688;28;20038;-69
2022/09/18 01:47:43;;;;;;;2.00;0.60;;;11.90;99.90;;;;;;4993079;28;20022;-69
2022/09/18 01:50:10;;;;;;;4.40;1.10;;;11.90;99.90;;;;;;4993115;28;20045;-69
2022/09/18 01:52:43;;;;;;;5.40;1.08;;;11.80;99.90;;;;;;4995466;28;20026;-70
2022/09/18 01:55:15;;;;;;;8.07;1.10;;;11.80;99.90;;;;;;4997351;28;20584;-69
2022/09/18 01:57:54;;;;;;;3.42;1.02;;;11.80;99.90;;;;;;4981361;28;20038;-69
2022/09/18 02:00:21;;;;;;;4.63;0.90;;;11.70;99.90;;;;;;4992749;28;20057;-69
2022/09/18 02:03:01;;;;;;;2.45;0.90;;;11.80;99.90;;;;;;4992769;28;20462;-68
2022/09/18 02:05:30;;;;;;;5.07;1.13;;;11.80;99.90;;;;;;5041704;28;20128;-69
2022/09/18 02:08:19;;;;;;;5.43;1.20;;;11.80;99.90;;;;;;5053706;28;20363;-68
2022/09/18 02:10:52;;;;;;;5.72;1.52;;;11.80;99.90;;;;;;5045269;28;20036;-68
2022/09/18 02:13:25;;;;;;;5.47;1.25;;;11.80;99.90;;;;;;5053559;28;20644;-69
2022/09/18 02:15:58;;;;;;;3.42;0.90;;;11.70;99.90;;;;;;5053483;28;20059;-68
2022/09/18 02:18:31;;;;;;;3.70;1.00;;;11.80;99.90;;;;;;5035364;28;20131;-68
2022/09/18 02:20:58;;;;;;;2.65;0.90;;;11.80;99.90;;;;;;5053310;28;20097;-68
2022/09/18 02:23:25;;;;;;;6.05;1.90;;;11.80;99.90;;;;;;5053553;28;20021;-69
2022/09/18 02:25:58;;;;;;;4.13;0.90;;;11.70;99.90;;;;;;5035576;28;20025;-69
2022/09/18 02:28:26;;;;;;;5.63;0.90;;;11.70;99.90;;;;;;5054190;28;20047;-69
2022/09/18 02:30:51;;;;;;;3.47;1.20;;;11.80;99.90;;;;;;5053155;28;20059;-67
2022/09/18 02:33:35;;;;;;;3.80;1.10;;;11.80;99.90;;;;;;5035430;28;20107;-68
2022/09/18 02:36:25;;;;;;;3.15;0.93;;;11.80;99.90;;;;;;5053202;28;20021;-68
2022/09/18 02:39:06;;;;;;;6.13;0.95;;;11.70;99.90;;;;;;5053179;28;20485;-69
2022/09/18 02:41:53;;;;;;;4.82;1.10;;;11.80;99.90;;;;;;5036052;28;20033;-68
2022/09/18 02:44:30;;;;;;;2.75;0.85;;;11.80;99.90;;;;;;5053364;28;20032;-68
2022/09/18 02:47:22;;;;;;;4.40;1.20;;;11.80;99.90;;;;;;5053409;28;20083;-69
2022/09/18 02:49:50;;;;;;;6.80;1.00;;;11.80;99.90;;;;;;5035616;28;20033;-68
2022/09/18 02:52:24;;;;;;;4.47;0.80;;;11.80;99.90;;;;;;5053074;28;20056;-69
2022/09/18 02:54:58;;;;;;;5.90;1.10;;;11.80;99.90;;;;;;5035219;28;20051;-67
2022/09/18 02:57:37;;;;;;;4.30;1.00;;;11.70;99.90;;;;;;5053081;28;20071;-68
2022/09/18 03:00:05;;;;;;;4.05;1.10;;;11.70;99.90;;;;;;5052941;28;20108;-69
2022/09/18 03:02:30;;;;;;;4.03;1.10;;;11.80;99.90;;;;;;5035023;28;20029;-68
2022/09/18 03:04:56;;;;;;;7.07;1.20;;;11.80;99.90;;;;;;5052834;28;20028;-68
2022/09/18 03:07:22;;;;;;;5.27;1.20;;;11.80;99.90;;;;;;5052640;28;20048;-68
2022/09/18 03:09:47;;;;;;;6.72;1.65;;;11.80;99.90;;;;;;5034939;28;20025;-68
2022/09/18 03:12:13;;;;;;;5.23;0.90;;;11.70;99.90;;;;;;5052821;28;20029;-68
2022/09/18 03:14:38;;;;;;;4.73;0.83;;;11.80;99.90;;;;;;5052865;28;20032;-68
2022/09/18 03:17:04;;;;;;;2.40;0.87;;;11.80;99.90;;;;;;5053297;28;20299;-69
2022/09/18 03:19:29;;;;;;;2.83;1.07;;;11.80;99.90;;;;;;5035157;28;20123;-68
2022/09/18 03:21:55;;;;;;;2.60;0.80;;;11.80;99.90;;;;;;5052635;28;20123;-69
2022/09/18 03:24:20;;;;;;;3.03;0.93;;;11.70;99.90;;;;;;5034885;28;20103;-69
2022/09/18 03:26:47;;;;;;;3.77;0.93;;;11.80;99.90;;;;;;5052544;28;20036;-69
2022/09/18 03:29:13;;;;;;;3.95;0.90;;;11.80;99.90;;;;;;5036300;28;20094;-69
2022/09/18 03:31:39;;;;;;;4.60;1.00;;;11.80;99.90;;;;;;5056646;28;20114;-69
2022/09/18 03:34:05;;;;;;;;;;;11.90;99.90;;;;;;5057516;28;20028;-70
2022/09/18 03:36:31;;;;;;;3.08;1.10;;;11.90;99.90;;;;;;5038639;28;19908;-69
2022/09/18 03:38:57;;;;;;;6.40;1.10;;;11.90;99.90;;;;;;5056278;28;20473;-67
2022/09/18 03:41:22;;;;;;;2.10;0.80;;;11.80;99.90;;;;;;5056379;28;20115;-68
2022/09/18 03:43:48;;;;;;;5.05;1.10;;;11.80;99.90;;;;;;5038389;28;20056;-68
2022/09/18 03:46:21;;;;;;;8.18;1.63;;;11.90;99.90;;;;;;5056181;28;20442;-68
2022/09/18 03:48:47;;;;;;;5.75;1.10;;;11.80;99.90;;;;;;5038505;28;20061;-68
2022/09/18 03:51:12;;;;;;;6.97;1.45;;;11.80;99.90;;;;;;5038338;28;20024;-68
2022/09/18 03:53:38;;;;;;;4.90;1.40;;;11.90;99.90;;;;;;5038254;28;20070;-68
2022/09/18 03:56:04;;;;;;;6.65;1.25;;;11.80;99.90;;;;;;5056295;28;20068;-68
2022/09/18 03:58:30;;;;;;;4.85;1.25;;;11.90;99.90;;;;;;5056442;28;20428;-68
2022/09/18 04:00:55;;;;;;;3.00;1.13;;;11.90;99.90;;;;;;5056257;28;20031;-69
2022/09/18 04:03:21;;;;;;;7.27;1.03;;;11.90;99.90;;;;;;5038102;28;20021;-69
2022/09/18 04:05:48;;;;;;;6.70;1.30;;;11.90;99.90;;;;;;5038183;28;20025;-68
2022/09/18 04:08:14;;;;;;;6.35;1.10;;;11.90;99.90;;;;;;5038096;28;20259;-69
2022/09/18 04:10:39;;;;;;;3.03;1.07;;;11.90;99.90;;;;;;5037908;28;20040;-68
2022/09/18 04:13:05;;;;;;;5.70;1.20;;;11.90;99.90;;;;;;5037993;28;20131;-68
2022/09/18 04:15:30;;;;;;;4.77;1.30;;;12.00;99.90;;;;;;5056060;28;20056;-69
2022/09/18 04:17:56;;;;;;;4.67;1.20;;;11.90;99.90;;;;;;5055945;28;20043;-69
2022/09/18 04:20:21;;;;;;;7.77;1.87;;;11.90;99.90;;;;;;5037941;28;20096;-68
2022/09/18 04:22:47;;;;;;;4.07;1.30;;;11.90;99.90;;;;;;5056534;28;20516;-68
2022/09/18 04:25:12;;;;;;;8.33;1.30;;;11.90;99.90;;;;;;5038586;28;20120;-68
2022/09/18 04:27:38;;;;;;;2.70;1.05;;;11.90;99.90;;;;;;5037979;28;20397;-68
2022/09/18 04:30:04;;;;;;;5.27;1.20;;;11.90;99.90;;;;;;5055436;28;20040;-69
2022/09/18 04:32:29;;;;;;;3.58;1.45;;;11.80;99.90;;;;;;5055646;28;20098;-69
2022/09/18 04:34:55;;;;;;;4.63;1.20;;;11.80;99.90;;;;;;5055193;28;20545;-69
2022/09/18 04:37:20;;;;;;;5.47;1.60;;;11.90;99.90;;;;;;5037295;28;20070;-69
2022/09/18 04:39:46;;;;;;;4.87;1.30;;;11.90;99.90;;;;;;5036737;28;20014;-69
2022/09/18 04:42:12;;;;;;;6.28;1.35;;;11.90;99.90;;;;;;5037057;28;20025;-69
2022/09/18 04:44:37;;;;;;;5.43;1.10;;;12.00;99.90;;;;;;5054893;28;20496;-69
2022/09/18 04:47:03;;;;;;;5.57;1.43;;;11.90;99.90;;;;;;5054929;28;20031;-69
2022/09/18 04:49:28;;;;;;;5.50;1.33;;;12.00;99.90;;;;;;5054992;28;20025;-69
2022/09/18 04:51:54;;;;;;;8.17;1.20;;;11.90;99.90;;;;;;5054807;28;20286;-69
2022/09/18 04:54:19;;;;;;;5.93;1.80;;;11.90;99.90;;;;;;5054974;28;20035;-69
2022/09/18 04:56:45;;;;;;;2.27;1.07;;;11.90;99.90;;;;;;5036756;28;20048;-69
2022/09/18 04:59:10;;;;;;;5.57;1.40;;;11.90;99.90;;;;;;5054859;28;20553;-69
2022/09/18 05:01:36;;;;;;;6.47;1.50;;;11.90;99.90;;;;;;5054706;28;20033;-68
2022/09/18 05:04:01;;;;;;;4.80;1.27;;;12.00;99.90;;;;;;5054903;28;20033;-69
2022/09/18 05:06:27;;;;;;;7.47;1.50;;;12.00;99.90;;;;;;5036686;28;20402;-68
2022/09/18 05:08:52;;;;;;;3.27;1.20;;;12.00;99.90;;;;;;5054891;28;20104;-68
2022/09/18 05:11:18;;;;;;;2.97;1.10;;;12.00;99.90;;;;;;5036959;28;20114;-68
2022/09/18 05:13:47;;;;;;;6.00;1.00;;;11.90;99.90;;;;;;5054856;28;20033;-68
2022/09/18 05:16:13;;;;;;;4.32;1.30;;;12.00;99.90;;;;;;5036852;28;20473;-68
2022/09/18 05:18:38;;;;;;;4.53;0.80;;;11.90;99.90;;;;;;5054379;28;20071;-69
2022/09/18 05:21:05;;;;;;;4.97;1.17;;;11.90;99.90;;;;;;5054475;28;20051;-69
2022/09/18 05:23:34;;;;;;;7.97;1.27;;;11.90;99.90;;;;;;5054491;28;20049;-68
2022/09/18 05:26:01;;;;;;;4.75;0.90;;;11.90;99.90;;;;;;5036309;28;20112;-69
2022/09/18 05:28:26;;;;;;;5.28;1.30;;;11.90;99.90;;;;;;5054301;28;20033;-70
2022/09/18 05:30:52;;;;;;;7.50;1.17;;;11.90;99.90;;;;;;5054121;28;20041;-69
2022/09/18 05:33:18;;;;;;;7.50;1.50;;;11.90;99.90;;;;;;5054292;28;20113;-69
2022/09/18 05:35:43;;;;;;;4.20;0.90;;;11.90;99.90;;;;;;5036188;28;20486;-69
2022/09/18 05:38:10;;;;;;;6.03;1.23;;;11.90;99.90;;;;;;5054058;28;20071;-69
2022/09/18 05:40:37;;;;;;;5.70;1.88;;;11.90;99.90;;;;;;5036226;28;20362;-66
2022/09/18 05:43:02;;;;;;;;;;;11.90;99.90;;;;;;5054643;28;20472;-64
2022/09/18 05:45:28;;;;;;;4.68;1.30;;;11.90;99.90;;;;;;5055655;28;19912;-70
2022/09/18 05:48:02;;;;;;;6.18;1.02;;;11.90;99.90;;;;;;5054809;28;20493;-67
2022/09/18 05:50:30;;;;;;;7.55;1.63;;;11.90;99.90;;;;;;5054194;28;20405;-67
2022/09/18 05:53:22;;;;;;;5.55;1.45;;;12.00;99.90;;;;;;5053384;28;20123;-65
2022/09/18 05:55:47;;;;;;;2.58;0.90;;;12.00;99.90;;;;;;5051292;28;20399;-69
2022/09/18 05:58:15;;;;;;;6.15;1.25;;;12.00;99.90;;;;;;5053948;28;20025;-70
2022/09/18 06:00:43;;;;;;;5.30;1.10;;;12.00;99.90;;;;;;5036252;28;20417;-69
2022/09/18 06:03:11;;;;;;;5.60;1.48;;;12.00;99.90;;;;;;5035853;28;20025;-68
2022/09/18 06:05:37;;;;;;;6.38;1.17;;;12.10;99.90;;;;;;5035356;28;20032;-68
2022/09/18 06:08:12;;;;;;;4.43;1.05;;;12.20;99.90;;;;;;5053393;28;20025;-70
2022/09/18 06:10:39;;;;;;;5.95;1.25;;;12.20;99.90;;;;;;5034777;28;20061;-71
2022/09/18 06:13:14;;;;;;;8.15;0.90;;;12.20;99.90;;;;;;5052583;28;20028;-71
2022/09/18 06:15:42;;;;;;;6.82;1.05;;;12.20;99.90;;;;;;5035026;28;20035;-66
2022/09/18 06:18:08;;;;;;;6.20;1.15;;;12.20;99.90;;;;;;5054013;28;20362;-71
2022/09/18 06:20:34;;;;;;;4.15;0.90;;;12.30;99.90;;;;;;5036027;28;20025;-72
2022/09/18 06:23:00;;;;;;;3.45;1.20;;;12.30;99.90;;;;;;5054625;28;20503;-72
2022/09/18 06:25:30;;;;;;;6.03;1.20;;;12.40;99.90;;;;;;5036670;28;20393;-72
2022/09/18 06:27:59;;;;;;;6.05;1.13;;;12.40;99.90;;;;;;5058590;28;20040;-72
2022/09/18 06:30:27;;;;;;;2.00;0.70;;;12.50;99.90;;;;;;5036779;28;20390;-72
2022/09/18 06:32:55;;;;;;;8.30;1.20;;;12.50;99.90;;;;;;5053464;28;20028;-72
2022/09/18 06:35:21;;;;;;;3.28;0.80;;;12.50;99.90;;;;;;5053389;28;20025;-64
2022/09/18 06:37:47;;;;;;;4.63;1.10;;;12.50;99.90;;;;;;5053315;28;20385;-68
2022/09/18 06:40:12;;;;;;;5.27;1.03;;;12.60;99.90;;;;;;5035423;28;20021;-64
2022/09/18 06:42:38;;;;;;;6.37;2.03;;;12.50;99.90;;;;;;5053101;28;20025;-70
2022/09/18 06:45:04;;;;;;;1.90;1.00;;;12.50;99.90;;;;;;5053388;28;20025;-65
2022/09/18 06:47:29;;;;;;;4.47;1.20;;;12.50;99.90;;;;;;5053021;28;20029;-65
2022/09/18 06:49:55;;;;;;;4.30;1.20;;;12.60;99.90;;;;;;5053658;28;20035;-69
2022/09/18 06:52:21;;;;;;;4.07;0.83;;;12.60;99.90;;;;;;5053148;28;20028;-65
2022/09/18 06:54:47;;;;;;;5.32;1.20;;;12.60;99.90;;;;;;5035216;28;20044;-67
2022/09/18 06:57:12;;;;;;;5.60;1.23;;;12.70;99.90;;;;;;5052847;28;20442;-68
2022/09/18 06:59:38;;;;;;;2.70;1.20;;;12.70;99.90;;;;;;5052851;28;20025;-68
2022/09/18 07:02:04;;;;;;;3.20;1.10;;;12.80;99.90;;;;;;5052755;28;20025;-68
2022/09/18 07:04:30;;;;;;;5.82;1.17;;;12.80;99.90;;;;;;5056792;28;20017;-68
2022/09/18 07:06:55;;;;;;;7.70;1.20;;;12.90;99.90;;;;;;5057334;28;20048;-67
2022/09/18 07:09:21;;;;;;;4.77;1.13;;;12.90;99.90;;;;;;5056766;28;20477;-68
2022/09/18 07:11:46;;;;;;;6.50;1.10;;;12.90;99.90;;;;;;5038700;28;20024;-68
2022/09/18 07:14:12;;;;;;;5.53;1.00;;;13.10;99.90;;;;;;5039085;28;20029;-66
2022/09/18 07:16:37;;;;;;;3.73;1.20;;;13.10;99.90;;;;;;5056938;28;20029;-71
2022/09/18 07:19:03;;;;;;;5.87;2.17;;;13.20;99.90;;;;;;5056660;28;20389;-70
2022/09/18 07:21:29;;;;;;;6.43;1.42;;;13.10;99.90;;;;;;5057038;28;20386;-70
2022/09/18 07:23:55;;;;;;;1.90;1.00;;;13.10;99.90;;;;;;5038668;28;20028;-69
2022/09/18 07:26:20;;;;;;;6.83;1.23;;;13.00;99.90;;;;;;5056419;28;20025;-72
2022/09/18 07:28:46;;;;;;;2.93;1.10;;;13.00;99.90;;;;;;5056553;28;20492;-73
2022/09/18 07:31:12;;;;;;;4.60;1.30;;;13.10;99.90;;;;;;5038478;28;20508;-72
2022/09/18 07:33:39;;;;;;;7.45;1.52;;;13.00;99.90;;;;;;5056822;28;20025;-72
2022/09/18 07:36:05;;;;;;;3.72;0.90;;;13.10;99.90;;;;;;5038569;28;20075;-73
2022/09/18 07:38:33;;;;;;;3.85;1.20;;;13.20;99.90;;;;;;5038582;28;20051;-65
2022/09/18 07:41:01;;;;;;;3.83;1.00;;;13.40;99.90;;;;;;5056196;28;20029;-64
2022/09/18 07:43:26;;;;;;;4.13;1.60;;;13.40;99.90;;;;;;5056374;28;20094;-68
2022/09/18 07:45:52;;;;;;;6.17;1.00;;;13.40;99.90;;;;;;5056789;28;20029;-69
2022/09/18 07:48:18;;;;;;;4.30;1.13;;;13.60;99.90;;;;;;5056572;28;20035;-66
2022/09/18 07:50:45;;;;;;;4.60;1.00;;;13.80;99.90;;;;;;5056632;28;20044;-69
2022/09/18 07:53:11;;;;;;;7.65;1.40;;;14.00;99.90;;;;;;5056482;28;20771;-71
2022/09/18 07:55:36;;;;;;;7.13;1.20;;;13.90;99.90;;;;;;5038776;28;20029;-65
2022/09/18 07:58:05;;;;;;;6.33;1.57;;;14.00;99.90;;;;;;5056423;28;20481;-68
2022/09/18 08:00:33;;;;;;;6.57;1.45;;;13.90;99.90;;;;;;5056949;28;20076;-67
2022/09/18 08:03:12;;;;;;;6.20;1.25;;;14.10;99.90;;;;;;5056887;28;20032;-67
2022/09/18 08:05:39;;;;;;;6.75;1.20;;;14.10;99.90;;;;;;5056875;28;20040;-67
2022/09/18 08:08:07;;;;;;;3.55;1.08;;;14.20;99.90;;;;;;5055893;28;20112;-66
2022/09/18 08:10:33;;;;;;;3.80;1.58;;;14.00;99.90;;;;;;5056065;28;20032;-66
2022/09/18 08:12:58;;;;;;;5.38;1.13;;;14.00;99.90;;;;;;5055792;28;20021;-68
2022/09/18 08:15:24;;;;;;;5.53;1.00;;;14.00;99.90;;;;;;5054882;28;20025;-61
2022/09/18 08:17:50;;;;;;;7.10;1.30;;;14.00;99.90;;;;;;5055635;28;20367;-66
2022/09/18 08:20:15;;;;;;;2.93;0.97;;;14.10;99.90;;;;;;5055210;28;20274;-67
2022/09/18 08:22:41;;;;;;;3.27;0.90;;;14.20;99.90;;;;;;5055696;28;20693;-67
2022/09/18 08:25:07;;;;;;;2.72;0.90;;;14.20;99.90;;;;;;5055411;28;20104;-67
2022/09/18 08:27:37;;;;;;;6.53;0.95;;;14.10;99.90;;;;;;5055265;28;20115;-67
2022/09/18 08:30:04;;;;;;;9.13;1.52;;;14.10;99.90;;;;;;5055023;28;20033;-67
2022/09/18 08:32:30;;;;;;;4.32;1.02;;;14.00;99.90;;;;;;5055344;28;20439;-68
2022/09/18 08:34:56;;;;;;;5.15;0.90;;;14.00;99.90;;;;;;5054823;28;20496;-68
2022/09/18 08:37:22;;;;;;;4.07;1.25;;;14.20;99.90;;;;;;5055864;28;20025;-70
2022/09/18 08:39:47;;;;;;;4.83;1.27;;;14.20;99.90;;;;;;5037469;28;20381;-69
2022/09/18 08:42:56;;;;;;;4.72;1.58;;;14.30;99.90;;;;;;5055474;28;20029;-69
2022/09/18 08:45:50;;;;;;;3.90;1.27;;;14.40;99.90;;;;;;5041569;28;20083;-68
2022/09/18 08:48:21;;;;;;;2.92;0.98;;;14.50;99.90;;;;;;5037089;28;20021;-69
2022/09/18 08:50:59;;;;;;;4.35;0.85;;;14.80;99.90;;;;;;5055025;28;20021;-68
2022/09/18 08:53:39;;;;;;;5.22;1.00;;;15.30;99.90;;;;;;5054981;28;20496;-65
2022/09/18 08:56:10;;;;;;;4.25;0.90;;;15.50;99.90;;;;;;5055239;28;20060;-65
2022/09/18 08:58:53;;;;;;;4.50;0.93;;;15.60;99.90;;;;;;5055171;28;20534;-69
2022/09/18 09:01:21;;;;;;;8.27;1.40;;;15.90;99.90;;;;;;5054892;28;20108;-68
2022/09/18 09:04:03;;;;;;;9.85;1.20;;;16.20;99.90;;;;;;5054953;28;20025;-70
2022/09/18 09:06:47;;;;;;;4.95;1.42;;;16.40;99.90;;;;;;5054527;28;20048;-68
2022/09/18 09:09:43;;;;;;;8.07;1.13;;;16.40;99.90;;;;;;5055052;28;20065;-69
2022/09/18 09:12:47;;;;;;;6.15;1.40;;;16.60;99.90;;;;;;5054526;28;20103;-68
2022/09/18 09:15:32;;;;;;;4.68;1.40;;;16.90;99.90;;;;;;5023493;28;20029;-69
2022/09/18 09:18:14;;;;;;;6.15;1.33;;;17.00;99.90;;;;;;5036559;28;20553;-68
2022/09/18 09:20:54;;;;;;;3.10;0.88;;;17.00;99.90;;;;;;5054526;28;20028;-68
2022/09/18 09:23:38;;;;;;;6.05;1.25;;;17.10;99.90;;;;;;5054100;28;20033;-68
2022/09/18 09:26:12;;;;;;;4.05;1.20;;;17.40;99.90;;;;;;5055069;28;20100;-70
2022/09/18 09:28:59;;;;;;;5.82;0.93;;;17.40;99.90;;;;;;5038164;28;20032;-66
2022/09/18 09:31:28;;;;;;;;;;;17.50;99.90;;;;;;5055465;28;20032;-68
2022/09/18 09:34:03;;;;;;;2.72;1.10;;;17.60;99.90;;;;;;5054782;28;20426;-64
2022/09/18 09:36:30;;;;;;;5.38;0.98;;;18.00;99.90;;;;;;5054173;28;20044;-62
2022/09/18 09:39:12;;;;;;;3.33;1.13;;;18.80;99.90;;;;;;5054270;28;20024;-66
2022/09/18 09:42:20;;;;;;;3.30;1.17;;;19.20;99.90;;;;;;5054312;28;20030;-66
2022/09/18 09:44:53;;;;;;;11.23;1.02;;;19.40;99.90;;;;;;5054194;28;20048;-66
2022/09/18 09:47:27;;;;;;;5.15;1.00;;;19.40;99.60;;;;;;5053778;28;20033;-65
2022/09/18 09:50:08;;;;;;;3.70;1.20;;;19.10;99.60;;;;;;5053942;28;20043;-66
2022/09/18 09:52:38;;;;;;;3.47;0.73;;;18.70;99.90;;;;;;5054162;28;20100;-69
2022/09/18 09:55:20;;;;;;;3.45;1.10;;;18.70;99.90;;;;;;5054053;28;20112;-65
2022/09/18 09:58:23;;;;;;;6.78;1.15;;;19.50;99.50;;;;;;5054307;28;20035;-69
2022/09/18 10:01:10;;;;;;;4.80;1.15;;;20.70;97.70;;;;;;5053755;28;20032;-69
2022/09/18 10:03:36;;;;;;;;;;;21.20;96.60;;;;;;5054162;28;20029;-70
2022/09/18 10:06:15;;;;;;;4.22;1.15;;;20.80;96.40;;;;;;5053466;28;20365;-69
2022/09/18 10:08:46;;;;;;;9.10;1.40;;;20.70;96.20;;;;;;5035844;28;20057;-68
2022/09/18 10:11:14;;;;;;;3.90;1.27;;;20.50;96.40;;;;;;5053561;28;20021;-69
2022/09/18 10:13:42;;;;;;;3.45;0.90;;;20.80;96.00;;;;;;5053978;28;20379;-68
2022/09/18 10:16:32;;;;;;;3.30;1.10;;;20.90;95.50;;;;;;5054236;28;20017;-67
2022/09/18 10:18:59;;;;;;;4.38;1.10;;;21.20;95.60;;;;;;5054282;28;20064;-67
2022/09/18 10:21:27;;;;;;;3.95;0.95;;;20.90;95.60;;;;;;5035622;28;20079;-64
2022/09/18 10:24:13;;;;;;;3.15;1.55;;;20.50;95.20;;;;;;5053553;28;20029;-64
2022/09/18 10:26:57;;;;;;;8.05;1.35;;;20.50;95.50;;;;;;5054414;28;20089;-64
2022/09/18 10:29:22;;;;;;;3.00;0.80;;;20.60;95.60;;;;;;5054455;28;20371;-68
2022/09/18 10:31:54;;;;;;;4.63;0.77;;;20.10;95.40;;;;;;5053595;28;20032;-66
2022/09/18 10:34:47;;;;;;;5.13;1.45;;;19.70;95.50;;;;;;5054060;28;20112;-66
2022/09/18 10:37:28;;;;;;;4.03;0.90;;;19.20;96.60;;;;;;5054468;28;20071;-65
2022/09/18 10:39:56;;;;;;;5.72;1.13;;;19.20;96.90;;;;;;5054879;28;20024;-64
2022/09/18 10:42:24;;;;;;;4.78;1.20;;;19.00;96.80;;;;;;5055183;28;20017;-66
2022/09/18 10:44:52;;;;;;;2.95;0.85;;;18.80;96.80;;;;;;5055758;28;20021;-65
2022/09/18 10:47:24;;;;;;;5.35;1.35;;;19.00;96.60;;;;;;5055463;28;20100;-65
2022/09/18 10:49:57;;;;;;;3.38;0.70;;;19.20;95.80;;;;;;5057380;28;20359;-68
2022/09/18 10:52:37;;;;;;;8.25;0.90;;;18.60;95.70;;;;;;5056164;28;20032;-69
2022/09/18 10:55:06;;;;;;;4.38;0.90;;;18.40;96.00;;;;;;5055997;28;20129;-69
2022/09/18 10:57:36;;;;;;;4.15;0.70;;;18.80;95.00;;;;;;5056454;28;20074;-67
2022/09/18 11:00:20;;;;;;;4.75;0.60;;;19.20;94.40;;;;;;5055500;28;20033;-69
2022/09/18 11:02:53;;;;;;;2.03;1.13;;;19.00;94.50;;;;;;5038218;28;20462;-68
2022/09/18 11:05:21;;;;;;;2.30;0.70;;;18.60;95.40;;;;;;5054524;28;20120;-68
2022/09/18 11:07:54;;;;;;;3.70;0.73;;;18.30;95.50;;;;;;5036507;28;20078;-66
2022/09/18 11:10:22;;;;;;;3.30;0.77;;;18.20;95.70;;;;;;5054483;28;20028;-64
2022/09/18 11:12:51;;;;;;;5.72;1.52;;;18.00;95.80;;;;;;5053794;28;20025;-68
2022/09/18 11:15:19;;;;;;;4.68;0.77;;;17.80;96.10;;;;;;5035931;28;20032;-68
2022/09/18 11:17:51;;;;;;;5.53;1.10;;;17.70;96.70;;;;;;5053887;28;20049;-69
2022/09/18 11:20:29;;;;;;;5.75;1.40;;;17.50;97.00;;;;;;5036771;28;20029;-64
2022/09/18 11:23:14;;;;;;;2.97;0.80;;;17.60;96.30;;;;;;5056587;28;20057;-63
2022/09/18 11:25:40;;;;;;;3.75;1.00;;;17.60;97.00;;;;;;5038283;28;20025;-69
2022/09/18 11:28:30;;;;;;;3.83;0.90;;;17.80;96.20;;;;;;5056234;28;20025;-65
2022/09/18 11:31:09;;;;;;;3.53;0.77;;;17.90;95.70;;;;;;5055392;28;20037;-65
2022/09/18 11:33:49;;;;;;;1.08;0.50;;;17.90;95.80;;;;;;5056409;28;20025;-66
2022/09/18 11:36:23;;;;;;;4.88;0.90;;;17.70;95.50;;;;;;5055364;28;20419;-67
2022/09/18 11:38:49;;;;;;;3.00;0.95;;;17.60;95.60;;;;;;5054647;28;20044;-62
2022/09/18 11:41:23;;;;;;;1.75;0.80;;;17.50;95.90;;;;;;5053027;28;20478;-68
2022/09/18 11:44:02;;;;;;;2.35;1.15;;;17.30;96.20;;;;;;5052950;28;20438;-64
2022/09/18 11:46:58;;;;;;;5.10;0.75;;;17.00;96.80;;;;;;5053054;28;20052;-68
2022/09/18 11:49:33;;;;;;;2.58;0.98;;;16.90;96.70;;;;;;5053713;28;20025;-66
2022/09/18 11:52:11;;;;;;;3.92;0.90;;;16.70;96.90;;;;;;5056727;28;20017;-60
2022/09/18 11:54:55;;;;;;;3.17;0.85;;;16.60;97.30;;;;;;5056772;28;20500;-64
2022/09/18 11:57:28;;;;;;;3.45;1.00;;;16.50;97.70;;;;;;5056644;28;20025;-64
2022/09/18 11:59:58;;;;;;;4.35;1.00;;;16.50;97.80;;;;;;5056232;28;20021;-64
2022/09/18 12:02:47;;;;;;;2.60;1.00;;;16.50;97.80;;;;;;5056369;28;20017;-63
2022/09/18 12:05:22;;;;;;;1.63;0.90;;;16.60;98.20;;;;;;5037969;28;20033;-64
2022/09/18 12:08:26;;;;;;;2.42;1.02;;;16.70;98.10;;;;;;5056797;28;20435;-64
2022/09/18 12:10:55;;;;;;;2.95;1.00;;;17.00;98.00;;;;;;5056410;28;20025;-68
2022/09/18 12:13:36;;;;;;;3.60;1.35;;;17.40;97.50;;;;;;5056327;28;20025;-65
2022/09/18 12:16:12;;;;;;;5.32;1.17;;;17.60;97.00;;;;;;5057523;28;20052;-65
2022/09/18 12:19:02;;;;;;;2.50;0.90;;;17.40;97.10;;;;;;5057673;28;20052;-69
2022/09/18 12:21:43;;;;;;;2.60;0.90;;;17.30;97.30;;;;;;5038362;28;20071;-66
2022/09/18 12:24:13;;;;;;;3.00;0.73;;;17.10;97.40;;;;;;5059353;28;20573;-69
2022/09/18 12:26:44;;;;;;;2.88;0.82;;;17.10;97.50;;;;;;5060089;28;20029;-69
2022/09/18 12:29:48;;;;;;;5.78;1.23;;;17.10;97.30;;;;;;5056145;28;20029;-69
2022/09/18 12:32:47;;;;;;;3.17;1.00;;;17.30;96.90;;;;;;5014706;28;20037;-64
2022/09/18 12:35:37;;;;;;;1.88;0.85;;;17.50;96.70;;;;;;5055404;28;20133;-67
2022/09/18 12:38:33;;;;;;;1.58;0.70;;;17.60;96.50;;;;;;5056672;28;20488;-67
2022/09/18 12:41:29;;;;;;;3.85;1.00;;;17.70;96.50;;;;;;5056170;28;20025;-61
2022/09/18 12:44:16;;;;;;;2.13;0.82;;;17.60;96.60;;;;;;5054964;28;20025;-63
2022/09/18 12:47:01;;;;;;;2.97;0.80;;;17.40;96.70;;;;;;5055547;28;20139;-64
2022/09/18 12:49:45;;;;;;;3.63;0.88;;;17.20;97.30;;;;;;5055125;28;20021;-60
2022/09/18 12:52:25;;;;;;;3.08;0.80;;;17.10;97.10;;;;;;5055203;28;20033;-63
2022/09/18 12:55:15;;;;;;;2.75;0.90;;;16.90;97.00;;;;;;5054969;28;20066;-64
2022/09/18 12:58:04;;;;;;;1.98;0.70;;;16.80;97.40;;;;;;5055839;28;20021;-62
2022/09/18 13:00:29;;;;;;;4.38;1.02;;;16.70;97.60;;;;;;5046586;28;20048;-63
2022/09/18 13:03:01;;;;;;;2.97;0.95;;;16.70;97.40;;;;;;5056127;28;20100;-64
2022/09/18 13:05:34;;;;;;;1.88;0.90;;;16.90;97.10;;;;;;5055284;28;20041;-67
2022/09/18 13:08:41;;;;;;;2.88;0.80;;;17.00;96.40;;;;;;5055053;28;20384;-65
2022/09/18 13:11:30;;;;;;;2.00;0.95;;;17.10;96.60;;;;;;5036819;28;20110;-64
2022/09/18 13:14:05;;;;;;;6.05;0.98;;;17.10;97.00;;;;;;5054683;28;20021;-64
2022/09/18 13:16:44;;;;;;;5.65;1.40;;;17.10;96.90;;;;;;5054820;28;20017;-64